Standish, Maine
Current Conditions -  °F | °C
As of 11:51 PM on Friday 28 Nov 2014 (Local Time) from KPWM Reporting Station
Scattered Clouds Scattered Clouds  
Wind Chill: 14°   Ceiling: Unl
Heat Index: 22°   Visibility: 10mi
Dew Point: 13°   Wind: 6mph
Humidity: 68%   Direction: 300°WNW
Pressure: 30.18"   Gusts: NA
Location:  43.74°N, 70.55°W
Report Text: KPWM 290451Z 30005KT 10SM SCT040 M06/M11 A3018 RMK AO2 SLP222 T10561106 400001056
Loading
Personal Weather Stations






























Interactive Weather Map New forecast layout! Learn more

10-Day Weather Forecast

Advertisements
Track Severe Weather on mobile